• Join FlightAware (Why Join?)
  • Login
  • US Flag 
Rudolph Flight #1: Arrived! 
01:10AM EST


 

Airport Tracker/Info


-or-


 

Live Flight TrackerFlight Track Log ✈ DAL268 ✈ 18-Oct-2013 ✈ KJFK - LLBG / TLV

Flight Track Log - Related Links

Times and Time Zones

All times are in EDT time to prevent confusion due to time zone crossing. See the DAL268 flight status page for this flight to view local times or setup timezone preferences in your user account.

Time Position Orientation Groundspeed Altitude Reporting Facility
EDT Latitude Longitude Course Direction KTS MPH feet Rate Location/Type
09:35PM 40.6310 -73.7790 270° West 88 101  Level FlightAware
09:36PM 40.6380 -73.7920 305° West 150 173 240 Level FlightAware
09:36PM 40.6460 -73.8120 298° West 185 213 200 1,260 Climbing FlightAware
09:36PM 40.6550 -73.8320 301° West 184 212 900 1,920 Climbing FlightAware
09:36PM 40.6570 -73.8410 286° West 185 213 1,100 1,800 Climbing FlightAware
09:37PM 40.6570 -73.8430 270° West 187 215 1,200 1,020 Climbing FlightAware
09:37PM 40.6460 -73.8670 239° Southwest 205 236 1,600 960 Climbing FlightAware
09:37PM 40.6430 -73.8700 217° Southwest 214 246 1,700 1,080 Climbing FlightAware
09:37PM 40.6310 -73.8760 201° Southwest 233 268 1,900 720 Climbing FlightAware
09:37PM 40.6260 -73.8770 189° South 239 275 1,900 1,020 Level FlightAware
09:38PM 40.5990 -73.8680 166° South 270 311 2,400 1,260 Climbing FlightAware
09:38PM 40.5950 -73.8630 136° Southeast 275 316 2,500 1,500 Climbing FlightAware
09:38PM 40.5890 -73.8530 128° Southeast 280 322 2,700 1,380 Climbing FlightAware
09:38PM 40.5850 -73.8460 127° Southeast 285 328 2,800 1,980 Climbing FlightAware
09:38PM 40.5760 -73.8170 112° Southeast 285 328 3,500 2,220 Climbing FlightAware
09:39PM 40.5630 -73.7750 112° Southeast 300 345 4,400 2,280 Climbing FlightAware
09:39PM 40.5500 -73.7430 118° Southeast 303 349 5,200 2,160 Climbing FlightAware
09:39PM 40.5330 -73.7040 120° Southeast 315 362 6,000 2,220 Climbing FlightAware
09:40PM 40.5180 -73.6700 120° Southeast 321 369 6,800 2,460 Climbing FlightAware
09:40PM 40.5020 -73.6340 120° Southeast 324 373 7,700 2,280 Climbing FlightAware
09:40PM 40.4860 -73.5980 120° Southeast 332 382 8,400 2,160 Climbing FlightAware
09:41PM 40.4710 -73.5660 122° Southeast 337 388 9,100 2,100 Climbing FlightAware
09:41PM 40.4570 -73.5320 118° Southeast 342 394 9,700 1,740 Climbing FlightAware
09:42PM 40.4300 -73.4730 121° Southeast 359 413 10,600 1,380 Climbing FlightAware
09:42PM 40.3950 -73.3940 120° Southeast 393 452 11,400 1,080 Climbing FlightAware
09:43PM 40.3720 -73.3430 121° Southeast 411 473 11,800 1,020 Climbing FlightAware
09:43PM 40.3676 -73.3322 118° Southeast 416 479 11,900 1,740 Climbing FlightAware ADS-B (KSNC)
09:43PM 40.3290 -73.2480 121° Southeast 429 494 13,000 1,740 Climbing FlightAware
09:44PM 40.3106 -73.2133 125° Southeast 435 501 13,500 1,680 Climbing FlightAware ADS-B (KSNC)
09:45PM 40.2450 -73.1030 128° Southeast 452 520 15,000 1,740 Climbing FlightAware
09:45PM 40.1843 -73.0015 128° Southeast 466 536 16,400 1,800 Climbing FlightAware ADS-B (KSNC)
09:46PM 40.1390 -72.9247 128° Southeast 473 544 17,400 1,680 Climbing FlightAware ADS-B (KSNC)
09:46PM 40.0940 -72.8470 127° Southeast 479 551 18,300 1,560 Climbing FlightAware
09:47PM 40.0440 -72.7640 128° Southeast 486 559 19,300 1,560 Climbing FlightAware
09:47PM 40.0090 -72.6980 125° Southeast 500 575 20,000 1,500 Climbing FlightAware
09:48PM 39.9910 -72.6390 112° Southeast 512 589 20,500 1,440 Climbing FlightAware
09:48PM 39.9820 -72.5530 98° East 521 600 21,200 1,380 Climbing FlightAware
09:49PM 39.9870 -72.4420 87° East 530 610 22,000 1,200 Climbing FlightAware
09:49PM 39.9910 -72.3430 87° East 536 617 22,600 1,200 Climbing FlightAware
09:50PM 40.0000 -72.1410 87° East 547 629 23,900 1,200 Climbing FlightAware
09:51PM 40.0050 -72.0340 86° East 555 639 24,500 1,080 Climbing FlightAware
09:52PM 40.0100 -71.9230 87° East 561 646 25,100 960 Climbing FlightAware
09:52PM 40.0160 -71.7630 87° East 571 657 25,800 600 Climbing FlightAware
09:53PM 40.0230 -71.6250 86° East 573 659 26,100 600 Climbing FlightAware
09:54PM 40.0290 -71.4770 87° East 583 671 26,700 420 Climbing FlightAware
09:54PM 40.0350 -71.3690 86° East 583 671 26,700  Level FlightAware
09:55PM 40.0410 -71.2620 86° East 583 671 26,700  Level FlightAware
09:55PM 40.0460 -71.1540 87° East 583 671 26,700  Level FlightAware
09:56PM 40.0520 -71.0460 86° East 583 671 26,700  Level FlightAware
09:57PM 40.0580 -70.9360 86° East 583 671 26,700 3,000 Level FlightAware
09:57PM 40.0542 -70.7306 86° East 603 694 30,100 3,000 Climbing New York Center
09:58PM 40.0622 -70.5083 87° East 608 700 31,200 900 Climbing New York Center
09:59PM 40.0681 -70.2939 88° East 608 700 31,900 720 Climbing New York Center
10:00PM 40.0733 -70.0769 88° East 598 688 32,700 540 Climbing New York Center
10:01PM 40.0781 -69.8572 88° East 598 688 33,000 120 Climbing New York Center
10:02PM 40.0844 -69.6292 88° East 610 702 33,000  Level New York Center
10:03PM 40.0886 -69.4122 88° East 610 702 33,000  Level New York Center
10:04PM 40.0922 -69.1897 89° East 605 696 33,000  Level New York Center
10:05PM 40.0975 -68.9725 88° East 605 696 33,000  Level New York Center
10:06PM 40.1003 -68.7500 89° East 605 696 33,000  Level New York Center
10:07PM 40.1028 -68.5328 89° East 605 696 33,000  Level New York Center
10:08PM 40.1106 -68.2856 88° East 615 708 33,000  Level New York Center
10:09PM 40.1103 -68.0711 90° East 609 701 33,000  Level New York Center
10:10PM 40.1094 -67.8542 90° East 602 693 33,000  Level New York Center
10:11PM 40.1164 -67.6314 88° East 609 701 33,000  Level New York Center
10:12PM 40.1147 -67.4142 91° East 604 695 33,000  Level New York Center
10:13PM 40.1167 -67.1917 89° East 604 695 33,000  Level New York Center
10:14PM 40.1225 -66.9767 88° East 604 695 33,000  Level New York Center
10:14PM 40.1167 -67.0000 78° East 602 693 33,000  Level New York Oceanic (ODAPS)
10:15PM 40.1531 -66.7633 78° East 604 695 33,000  Level New York Center
10:16PM 40.1875 -66.5494 78° East 598 688 33,000  Level New York Center
10:18PM 40.2610 -66.3090 68° East  Level FlightAware Approximate
10:22PM 40.3833 -65.2833 80° East 599 689 33,000  Level New York Oceanic (ODAPS)
10:25PM 40.6480 -65.0056 68° East  Level FlightAware Approximate
10:26PM 40.7007 -64.8164 71° East  Level FlightAware Approximate
10:27PM 40.7497 -64.6265 71° East  Level FlightAware Approximate
10:28PM 40.5532 -64.0245 80° East 599 689 33,000  Level FlightAware Transoceanic
10:29PM 40.5802 -63.8141 80° East 599 689 33,000  Level FlightAware Transoceanic
10:30PM 40.6068 -63.6035 81° East 599 689 33,000  Level FlightAware Transoceanic
10:31PM 40.6330 -63.3928 81° East 599 689 33,000  Level FlightAware Transoceanic
10:32PM 40.6589 -63.1819 81° East 599 689 33,000  Level FlightAware Transoceanic
10:33PM 40.6843 -62.9708 81° East 599 689 33,000  Level FlightAware Transoceanic
10:34PM 40.7094 -62.7596 81° East 599 689 33,000  Level FlightAware Transoceanic
10:35PM 40.7341 -62.5482 81° East 599 689 33,000  Level FlightAware Transoceanic
10:36PM 40.7584 -62.3366 81° East 599 689 33,000  Level FlightAware Transoceanic
10:37PM 40.7823 -62.1249 82° East 599 689 33,000  Level FlightAware Transoceanic
10:38PM 40.8058 -61.9131 82° East 599 689 33,000  Level FlightAware Transoceanic
10:39PM 40.8289 -61.7011 82° East 599 689 33,000  Level FlightAware Transoceanic
10:40PM 40.8517 -61.4889 82° East 599 689 33,000  Level FlightAware Transoceanic
10:41PM 40.8741 -61.2766 82° East 599 689 33,000  Level FlightAware Transoceanic
10:42PM 40.8960 -61.0642 82° East 599 689 33,000  Level FlightAware Transoceanic
10:43PM 40.9176 -60.8516 82° East 599 689 33,000  Level FlightAware Transoceanic
10:43PM 40.9167 -60.8667 82° East 608 700 33,000  Level New York Oceanic (ODAPS)
10:44PM 40.9388 -60.6389 83° East 599 689 33,000  Level FlightAware Transoceanic
10:45PM 40.9596 -60.4261 83° East 599 689 33,000  Level FlightAware Transoceanic
10:46PM 40.9800 -60.2131 83° East 599 689 33,000  Level FlightAware Transoceanic
10:47PM 41.0000 -60.0000 79° East 599 689 33,000  Level FlightAware Transoceanic
10:47PM 41.0000 -60.0000 79° East 594 684 33,000  Level New York Oceanic (ODAPS)
10:48PM 41.0309 -59.7863 79° East 599 689 33,000  Level FlightAware Transoceanic
10:49PM 41.0613 -59.5724 79° East 608 700 33,000  Level FlightAware Transoceanic
10:50PM 41.0914 -59.3583 80° East 608 700 33,000  Level FlightAware Transoceanic
10:51PM 41.1211 -59.1440 80° East 608 700 33,000  Level FlightAware Transoceanic
10:52PM 41.1503 -58.9296 80° East 608 700 33,000  Level FlightAware Transoceanic
10:53PM 41.1792 -58.7149 80° East 594 684 33,000  Level FlightAware Transoceanic
10:54PM 41.2077 -58.5000 80° East 594 684 33,000  Level FlightAware Transoceanic
10:55PM 41.2357 -58.2850 80° East 594 684 33,000  Level FlightAware Transoceanic
10:56PM 41.2634 -58.0698 80° East 594 684 33,000  Level FlightAware Transoceanic
10:57PM 41.2907 -57.8544 81° East 594 684 33,000  Level FlightAware Transoceanic
10:58PM 41.3176 -57.6388 81° East 594 684 33,000  Level FlightAware Transoceanic
10:59PM 41.3440 -57.4230 81° East 594 684 33,000  Level FlightAware Transoceanic
11:00PM 41.3701 -57.2071 81° East 594 684 33,000  Level FlightAware Transoceanic
11:01PM 41.3958 -56.9910 81° East 594 684 33,000  Level FlightAware Transoceanic
11:02PM 41.4210 -56.7747 81° East 594 684 33,000  Level FlightAware Transoceanic
11:03PM 41.4459 -56.5583 81° East 594 684 33,000  Level FlightAware Transoceanic
11:03PM 41.4500 -56.5000 81° East 581 669 33,000  Level New York Oceanic (ODAPS)
11:04PM 41.4703 -56.3417 82° East 594 684 33,000  Level FlightAware Transoceanic
11:05PM 41.4944 -56.1249 82° East 594 684 33,000  Level FlightAware Transoceanic
11:06PM 41.5180 -55.9080 82° East 594 684 33,000  Level FlightAware Transoceanic
11:07PM 41.5412 -55.6909 82° East 594 684 33,000  Level FlightAware Transoceanic
11:08PM 41.5640 -55.4736 82° East 594 684 33,000  Level FlightAware Transoceanic
11:09PM 41.5892 -55.2095 82° East 581 669 33,000  Level FlightAware Transoceanic
11:10PM 41.6110 -54.9939 82° East 581 669 33,000  Level FlightAware Transoceanic
11:11PM 41.6324 -54.7781 83° East 581 669 33,000  Level FlightAware Transoceanic
11:12PM 41.6534 -54.5622 83° East 581 669 33,000  Level FlightAware Transoceanic
11:13PM 41.6740 -54.3461 83° East 581 669 33,000  Level FlightAware Transoceanic
11:14PM 41.6941 -54.1300 83° East 581 669 33,000  Level FlightAware Transoceanic
11:15PM 41.7139 -53.9137 83° East 581 669 33,000  Level FlightAware Transoceanic
11:16PM 41.7333 -53.6972 83° East 581 669 33,000  Level FlightAware Transoceanic
11:17PM 41.7523 -53.4806 83° East 581 669 33,000  Level FlightAware Transoceanic
11:18PM 41.7708 -53.2639 84° East 581 669 33,000  Level FlightAware Transoceanic
11:19PM 41.7890 -53.0471 84° East 581 669 33,000  Level FlightAware Transoceanic
11:20PM 41.8067 -52.8302 84° East 581 669 33,000  Level FlightAware Transoceanic
11:21PM 41.8240 -52.6131 84° East 581 669 33,000  Level FlightAware Transoceanic
11:22PM 41.8410 -52.3959 84° East 581 669 33,000  Level FlightAware Transoceanic
11:23PM 41.8575 -52.1786 84° East 581 669 33,000  Level FlightAware Transoceanic
11:23PM 41.8500 -52.2333 84° East 581 669 33,000  Level New York Oceanic (ODAPS)
11:24PM 41.8736 -51.9612 84° East 581 669 33,000  Level FlightAware Transoceanic
11:25PM 41.8893 -51.7437 85° East 581 669 33,000  Level FlightAware Transoceanic
11:26PM 41.9045 -51.5261 85° East 581 669 33,000  Level FlightAware Transoceanic
11:27PM 41.9194 -51.3083 85° East 581 669 33,000  Level FlightAware Transoceanic
11:28PM 41.9339 -51.0905 85° East 581 669 33,000  Level FlightAware Transoceanic
11:29PM 41.9372 -51.0164 85° East 581 669 33,000  Level FlightAware Transoceanic
11:30PM 41.9505 -50.8133 85° East 581 669 33,000  Level FlightAware Transoceanic
11:31PM 41.9634 -50.6101 85° East 581 669 33,000  Level FlightAware Transoceanic
11:32PM 41.9759 -50.4068 85° East 581 669 33,000  Level FlightAware Transoceanic
11:33PM 41.9882 -50.2034 85° East 581 669 33,000  Level FlightAware Transoceanic
11:34PM 42.0000 -50.0000 87° East 581 669 33,000  Level FlightAware Transoceanic
11:34PM 42.0000 -50.0000 87° East 582 670 33,000  Level New York Oceanic (ODAPS)
11:35PM 42.0092 -49.7831 87° East 581 669 33,000  Level FlightAware Transoceanic
11:36PM 42.0181 -49.5661 87° East 581 669 33,000  Level FlightAware Transoceanic
11:37PM 42.0265 -49.3490 87° East 581 669 33,000  Level FlightAware Transoceanic
11:38PM 42.0345 -49.1319 87° East 581 669 33,000  Level FlightAware Transoceanic
11:39PM 42.0421 -48.9148 87° East 581 669 33,000  Level FlightAware Transoceanic
11:40PM 42.0493 -48.6976 88° East 582 670 33,000  Level FlightAware Transoceanic
11:41PM 42.0560 -48.4803 88° East 582 670 33,000  Level FlightAware Transoceanic
11:42PM 42.0624 -48.2630 88° East 582 670 33,000  Level FlightAware Transoceanic
11:43PM 42.0684 -48.0457 88° East 582 670 33,000  Level FlightAware Transoceanic
11:43PM 42.0667 -47.8167 88° East 574 661 33,000  Level New York Oceanic (ODAPS)
11:44PM 42.0739 -47.8283 88° East 582 670 33,000  Level FlightAware Transoceanic
11:45PM 42.0790 -47.6109 88° East 582 670 33,000  Level FlightAware Transoceanic
11:46PM 42.0838 -47.3934 88° East 582 670 33,000  Level FlightAware Transoceanic
11:47PM 42.0881 -47.1759 89° East 582 670 33,000  Level FlightAware Transoceanic
11:48PM 42.0920 -46.9584 89° East 582 670 33,000  Level FlightAware Transoceanic
11:49PM 42.0955 -46.7409 89° East 582 670 33,000  Level FlightAware Transoceanic
11:50PM 42.0924 -46.5138 89° East 574 661 33,000  Level FlightAware Transoceanic
11:51PM 42.0953 -46.2965 89° East 574 661 33,000  Level FlightAware Transoceanic
11:52PM 42.0977 -46.0793 89° East 574 661 33,000  Level FlightAware Transoceanic
11:53PM 42.0998 -45.8620 89° East 574 661 33,000  Level FlightAware Transoceanic
11:54PM 42.1014 -45.6447 89° East 574 661 33,000  Level FlightAware Transoceanic
11:55PM 42.1026 -45.4274 90° East 574 661 33,000  Level FlightAware Transoceanic
11:56PM 42.1034 -45.2101 90° East 574 661 33,000  Level FlightAware Transoceanic
11:57PM 42.1038 -44.9928 90° East 574 661 33,000  Level FlightAware Transoceanic
11:58PM 42.1038 -44.7755 90° East 574 661 33,000  Level FlightAware Transoceanic
11:59PM 42.1034 -44.5582 90° East 574 661 33,000  Level FlightAware Transoceanic
12:00AM 42.1026 -44.3409 90° East 574 661 33,000  Level FlightAware Transoceanic
12:01AM 42.1013 -44.1236 91° East 574 661 33,000  Level FlightAware Transoceanic
12:02AM 42.0997 -43.9063 91° East 574 661 33,000  Level FlightAware Transoceanic
12:03AM 42.0976 -43.6890 91° East 574 661 33,000  Level FlightAware Transoceanic
12:04AM 42.0952 -43.4717 91° East 574 661 33,000  Level FlightAware Transoceanic
12:04AM 42.1000 -43.4333 91° East 577 664 33,000  Level New York Oceanic (ODAPS)
12:05AM 42.0923 -43.2545 91° East 574 661 33,000  Level FlightAware Transoceanic
12:06AM 42.0890 -43.0373 91° East 574 661 33,000  Level FlightAware Transoceanic
12:07AM 42.0853 -42.8201 91° East 574 661 33,000  Level FlightAware Transoceanic
12:08AM 42.0812 -42.6029 92° East 574 661 33,000  Level FlightAware Transoceanic
12:09AM 42.0767 -42.3858 92° East 574 661 33,000  Level FlightAware Transoceanic
12:10AM 42.0745 -42.1446 92° East 577 664 33,000  Level FlightAware Transoceanic
12:11AM 42.0688 -41.9300 92° East 577 664 33,000  Level FlightAware Transoceanic
12:12AM 42.0628 -41.7153 92° East 577 664 33,000  Level FlightAware Transoceanic
12:13AM 42.0563 -41.5007 92° East 577 664 33,000  Level FlightAware Transoceanic
12:14AM 42.0495 -41.2862 93° East 577 664 33,000  Level FlightAware Transoceanic
12:15AM 42.0422 -41.0717 93° East 577 664 33,000  Level FlightAware Transoceanic
12:16AM 42.0346 -40.8572 93° East 577 664 33,000  Level FlightAware Transoceanic
12:17AM 42.0265 -40.6428 93° East 577 664 33,000  Level FlightAware Transoceanic
12:18AM 42.0181 -40.4285 93° East 577 664 33,000  Level FlightAware Transoceanic
12:19AM 42.0093 -40.2142 93° East 577 664 33,000  Level FlightAware Transoceanic
12:20AM 42.0000 -40.0000 87° East 577 664 33,000  Level FlightAware Transoceanic
12:21AM 42.0089 -39.7921 87° East 577 664 33,000  Level FlightAware Transoceanic
12:22AM 42.0173 -39.5842 87° East 577 664 33,000  Level FlightAware Transoceanic
12:23AM 42.0254 -39.3762 87° East 577 664 33,000  Level FlightAware Transoceanic
12:24AM 42.0332 -39.1681 87° East 577 664 33,000  Level FlightAware Transoceanic
12:25AM 42.0405 -38.9600 87° East 577 664 33,000  Level FlightAware Transoceanic
12:26AM 42.0475 -38.7519 87° East 577 664 33,000  Level FlightAware Transoceanic
12:27AM 42.0541 -38.5437 88° East 577 664 33,000  Level FlightAware Transoceanic
12:28AM 42.0603 -38.3354 88° East 577 664 33,000  Level FlightAware Transoceanic
12:29AM 42.0662 -38.1272 88° East 577 664 33,000  Level FlightAware Transoceanic
12:30AM 42.0717 -37.9189 88° East 577 664 33,000  Level FlightAware Transoceanic
12:31AM 42.0767 -37.7105 88° East 577 664 33,000  Level FlightAware Transoceanic
12:32AM 42.0815 -37.5021 88° East 577 664 33,000  Level FlightAware Transoceanic
12:33AM 42.0858 -37.2937 88° East 577 664 33,000  Level FlightAware Transoceanic
12:34AM 42.0898 -37.0853 89° East 577 664 33,000  Level FlightAware Transoceanic
12:35AM 42.0933 -36.8768 89° East 577 664 33,000  Level FlightAware Transoceanic
12:36AM 42.0966 -36.6684 89° East 577 664 33,000  Level FlightAware Transoceanic
12:37AM 42.0994 -36.4599 89° East 577 664 33,000  Level FlightAware Transoceanic
12:38AM 42.1018 -36.2513 89° East 577 664 33,000  Level FlightAware Transoceanic
12:39AM 42.1039 -36.0428 89° East 577 664 33,000  Level FlightAware Transoceanic
12:40AM 42.1056 -35.8343 89° East 577 664 33,000  Level FlightAware Transoceanic
12:41AM 42.1069 -35.6257 90° East 577 664 33,000  Level FlightAware Transoceanic
12:42AM 42.1079 -35.4171 90° East 577 664 33,000  Level FlightAware Transoceanic
12:43AM 42.1085 -35.2086 90° East 577 664 33,000  Level FlightAware Transoceanic
12:44AM 42.1086 -35.0000 90° East 577 664 33,000  Level FlightAware Transoceanic
12:45AM 42.1085 -34.7914 90° East 577 664 33,000  Level FlightAware Transoceanic
12:46AM 42.1079 -34.5829 90° East 577 664 33,000  Level FlightAware Transoceanic
12:47AM 42.1069 -34.3743 90° East 577 664 33,000  Level FlightAware Transoceanic
12:48AM 42.1056 -34.1657 91° East 577 664 33,000  Level FlightAware Transoceanic
12:49AM 42.1039 -33.9572 91° East 577 664 33,000  Level FlightAware Transoceanic
12:50AM 42.1018 -33.7487 91° East 577 664 33,000  Level FlightAware Transoceanic
12:51AM 42.0994 -33.5401 91° East 577 664 33,000  Level FlightAware Transoceanic
12:52AM 42.0966 -33.3316 91° East 577 664 33,000  Level FlightAware Transoceanic
12:53AM 42.0933 -33.1232 91° East 577 664 33,000  Level FlightAware Transoceanic
12:54AM 42.0898 -32.9147 91° East 577 664 33,000  Level FlightAware Transoceanic
12:55AM 42.0858 -32.7063 92° East 577 664 33,000  Level FlightAware Transoceanic
12:56AM 42.0815 -32.4979 92° East 577 664 33,000  Level FlightAware Transoceanic
12:57AM 42.0767 -32.2895 92° East 577 664 33,000  Level FlightAware Transoceanic
12:58AM 42.0717 -32.0811 92° East 577 664 33,000  Level FlightAware Transoceanic
12:59AM 42.0662 -31.8728 92° East 577 664 33,000 1,620 Level FlightAware Transoceanic
12:59AM 42.0670 -31.9070 92° East 560 644 35,000 2,580 Climbing FlightAware
12:59AM 42.0640 -31.7850 92° East 561 646 35,000  Level FlightAware
01:00AM 42.0610 -31.6600 92° East 562 647 35,000  Level FlightAware
01:00AM 42.0570 -31.5520 93° East 563 648 35,000  Level FlightAware
01:01AM 42.0530 -31.4150 92° East 564 649 35,000  Level FlightAware
01:02AM 42.0480 -31.2640 93° East 564 649 35,000  Level FlightAware
01:02AM 42.0450 -31.1490 92° East 565 650 35,000  Level FlightAware
01:03AM 42.0400 -31.0230 93° East 565 650 35,000  Level FlightAware
01:03AM 42.0360 -30.9000 92° East 566 651 35,000  Level FlightAware
01:04AM 42.0310 -30.7630 93° East 566 651 35,000  Level FlightAware
01:05AM 42.0260 -30.6260 93° East 566 651 35,000  Level FlightAware
01:05AM 42.0220 -30.5200 93° East 566 651 35,000  Level FlightAware
01:06AM 42.0170 -30.3900 93° East 565 650 35,000  Level FlightAware
01:07AM 42.0110 -30.2610 94° East 563 648 35,000  Level FlightAware
01:07AM 42.0070 -30.1520 93° East 563 648 35,000  Level FlightAware
01:08AM 42.0020 -30.0170 93° East 559 643 35,000  Level FlightAware
01:08AM 42.0040 -29.9000 89° East 552 635 35,000  Level FlightAware
01:09AM 42.0090 -29.7740 87° East 549 632 35,000  Level FlightAware
01:09AM 42.0140 -29.6650 86° East 549 632 35,000  Level FlightAware
01:10AM 42.0190 -29.5450 87° East 548 631 35,000  Level FlightAware
01:11AM 42.0240 -29.4270 87° East 549 632 35,000  Level FlightAware
01:11AM 42.0290 -29.2930 87° East 549 632 35,000  Level FlightAware
01:12AM 42.0330 -29.1850 87° East 549 632 35,000  Level FlightAware
01:12AM 42.0370 -29.0590 88° East 548 631 35,000  Level FlightAware
01:13AM 42.0410 -28.9460 87° East 548 631 35,000  Level FlightAware
01:14AM 42.0450 -28.8240 87° East 548 631 35,000  Level FlightAware
01:14AM 42.0490 -28.7110 87° East 549 632 35,000  Level FlightAware
01:15AM 42.0530 -28.5890 87° East 549 632 35,000  Level FlightAware
01:15AM 42.0570 -28.4660 87° East 549 632 35,000  Level FlightAware
01:16AM 42.0600 -28.3470 88° East 549 632 35,000  Level FlightAware
01:16AM 42.0640 -28.2310 87° East 550 633 35,000  Level FlightAware
01:17AM 42.0680 -28.0840 88° East 551 634 35,000  Level FlightAware
01:18AM 42.0710 -27.9740 88° East 553 636 35,000  Level FlightAware
01:18AM 42.0740 -27.8610 88° East 553 636 35,000  Level FlightAware
01:21AM 42.0840 -27.3890 88° East 553 636 35,000  Level FlightAware
01:21AM 42.0870 -27.2590 88° East 553 636 35,000  Level FlightAware
01:22AM 42.0900 -27.1250 88° East 553 636 35,000  Level FlightAware
01:22AM 42.0920 -27.0110 89° East 553 636 35,000  Level FlightAware
01:23AM 42.0940 -26.8810 89° East 552 635 35,000  Level FlightAware
01:24AM 42.0960 -26.7610 89° East 550 633 35,000  Level FlightAware
01:24AM 42.0970 -26.7070 89° East 550 633 35,000  Level FlightAware
01:25AM 42.0990 -26.5200 89° East 547 629 35,000  Level FlightAware
01:25AM 42.1020 -26.4040 88° East 547 629 35,000  Level FlightAware
01:26AM 42.1040 -26.2990 88° East 547 629 35,000  Level FlightAware
01:27AM 42.1040 -26.1440 90° East 542 624 35,000  Level FlightAware
01:27AM 42.1050 -26.0500 89° East 542 624 35,000  Level FlightAware
01:28AM 42.1060 -25.9470 89° East 542 624 35,000  Level FlightAware
01:28AM 42.1070 -25.8440 89° East 542 624 35,000  Level FlightAware
01:29AM 42.1090 -25.7460 88° East 542 624 35,000  Level FlightAware
01:30AM 42.1100 -25.6420 89° East 542 624 35,000  Level FlightAware
01:30AM 42.1080 -25.4470 91° East 547 629 35,000  Level FlightAware
01:31AM 42.1100 -25.2740 89° East 547 629 35,000  Level FlightAware
01:32AM 42.1110 -25.1670 89° East 547 629 35,000  Level FlightAware
01:32AM 42.1120 -25.0620 89° East 547 629 35,000  Level FlightAware
01:33AM 42.1140 -24.9580 88° East 547 629 35,000  Level FlightAware
01:34AM 42.1150 -24.8540 89° East 547 629 35,000  Level FlightAware
01:34AM 42.1080 -24.5870 92° East 547 629 35,000  Level FlightAware
01:35AM 42.1080 -24.4820 90° East 548 631 35,000  Level FlightAware
01:36AM 42.1070 -24.3620 91° East 548 631 35,000  Level FlightAware
01:36AM 42.1070 -24.2420 90° East 548 631 35,000  Level FlightAware
01:37AM 42.1070 -24.1380 90° East 548 631 35,000  Level FlightAware
01:37AM 42.1050 -24.0420 92° East 654 753 35,000  Level FlightAware
01:38AM 42.1040 -23.8780 90° East 549 632 35,000  Level FlightAware
01:38AM 42.1020 -23.7520 91° East 549 632 35,000  Level FlightAware
01:39AM 42.1020 -23.6380 90° East 549 632 35,000  Level FlightAware
01:40AM 42.0990 -23.5060 92° East 549 632 35,000  Level FlightAware
01:40AM 42.0980 -23.3830 91° East 549 632 35,000  Level FlightAware
01:41AM 42.0960 -23.2670 91° East 549 632 35,000  Level FlightAware
01:41AM 42.0950 -23.2020 91° East 549 632 35,000  Level FlightAware
01:42AM 42.0920 -23.0350 91° East 548 631 35,000  Level FlightAware
01:43AM 42.0900 -22.8850 91° East 549 632 35,000  Level FlightAware
01:43AM 42.0890 -22.7770 91° East 549 632 35,000  Level FlightAware
01:44AM 42.0870 -22.6720 91° East 549 632 35,000  Level FlightAware
01:45AM 42.0860 -22.5680 91° East 549 632 35,000  Level FlightAware
01:45AM 42.0840 -22.4630 91° East 549 632 35,000  Level FlightAware
01:46AM 42.0830 -22.3550 91° East 549 632 35,000  Level FlightAware
01:46AM 42.0820 -22.2510 91° East 549 632 35,000  Level FlightAware
01:47AM 42.0800 -22.1460 91° East 549 632 35,000  Level FlightAware
01:48AM 42.0790 -22.0410 91° East 549 632 35,000  Level FlightAware
01:48AM 42.0780 -21.9340 91° East 549 632 35,000  Level FlightAware
01:49AM 42.0760 -21.8350 92° East 549 632 35,000  Level FlightAware
01:49AM 42.0750 -21.7300 91° East 549 632 35,000  Level FlightAware
01:50AM 42.0730 -21.6250 91° East 549 632 35,000  Level FlightAware
01:51AM 42.0720 -21.5210 91° East 549 632 35,000  Level FlightAware
01:51AM 42.0710 -21.4160 91° East 549 632 35,000  Level FlightAware
01:52AM 42.0690 -21.3110 91° East 549 632 35,000  Level FlightAware
01:54AM 42.0966 -20.9656 84° East  Level Estimated
01:55AM 42.1124 -20.7623 84° East  Level Estimated
01:56AM 42.1278 -20.5589 84° East  Level Estimated
01:57AM 42.1428 -20.3554 84° East  Level Estimated
01:58AM 42.1575 -20.1517 84° East  Level Estimated
01:59AM 42.1718 -19.9480 85° East  Level Estimated
02:00AM 42.1858 -19.7442 85° East  Level Estimated
02:01AM 42.1994 -19.5404 85° East  Level Estimated
02:02AM 42.2126 -19.3364 85° East  Level Estimated
02:03AM 42.2255 -19.1324 85° East  Level Estimated
02:04AM 42.2380 -18.9282 85° East  Level Estimated
02:05AM 42.2501 -18.7240 85° East  Level Estimated
02:06AM 42.2619 -18.5197 85° East  Level Estimated
02:07AM 42.2734 -18.3153 86° East  Level Estimated
02:08AM 42.2844 -18.1109 86° East  Level Estimated
02:09AM 42.2951 -17.9064 86° East  Level Estimated
02:10AM 42.3055 -17.7018 86° East  Level Estimated
02:11AM 42.3154 -17.4972 86° East  Level Estimated
02:12AM 42.3250 -17.2924 86° East  Level Estimated
02:13AM 42.3343 -17.0877 86° East  Level Estimated
02:14AM 42.3432 -16.8828 87° East  Level Estimated
02:15AM 42.3517 -16.6779 87° East  Level Estimated
02:16AM 42.3598 -16.4730 87° East  Level Estimated
02:17AM 42.3676 -16.2680 87° East  Level Estimated
02:18AM 42.3750 -16.0630 87° East  Level Estimated
02:19AM 42.3821 -15.8579 87° East  Level Estimated
02:20AM 42.3888 -15.6528 87° East  Level Estimated
02:21AM 42.3951 -15.4476 88° East  Level Estimated
02:22AM 42.4010 -15.2423 88° East  Level Estimated
02:23AM 42.4066 -15.0371 88° East  Level Estimated
02:24AM 42.4118 -14.8318 88° East  Level Estimated
02:25AM 42.4167 -14.6265 88° East  Level Estimated
02:26AM 42.4212 -14.4211 88° East  Level Estimated
02:27AM 42.4253 -14.2157 88° East  Level Estimated
02:28AM 42.4291 -14.0103 89° East  Level Estimated
02:29AM 42.4325 -13.8049 89° East  Level Estimated
02:30AM 42.4355 -13.5995 89° East  Level Estimated
02:31AM 42.4382 -13.3940 89° East  Level Estimated
02:32AM 42.4404 -13.1885 89° East  Level Estimated
02:33AM 42.4424 -12.9830 89° East  Level Estimated
02:34AM 42.4439 -12.7775 89° East  Level Estimated
02:34AM 42.2000 -12.3070 89° East 552 635 36,000  Level FlightAware
02:35AM 42.2070 -12.1940 85° East 552 635 36,000  Level FlightAware
02:35AM 42.2170 -12.0370 85° East 549 632 36,000  Level FlightAware
02:36AM 42.2240 -11.9080 86° East 547 629 36,000  Level FlightAware
02:37AM 42.2310 -11.7960 85° East 546 628 36,000  Level FlightAware
02:37AM 42.2370 -11.6880 86° East 546 628 36,000  Level FlightAware
02:38AM 42.2440 -11.5650 86° East 546 628 36,000  Level FlightAware
02:38AM 42.2510 -11.4430 86° East 548 631 36,000  Level FlightAware
02:39AM 42.2580 -11.3100 86° East 549 632 36,000  Level FlightAware
02:40AM 42.2640 -11.1870 86° East 549 632 36,000  Level FlightAware
02:40AM 42.2700 -11.0880 85° East 549 632 36,000  Level FlightAware
02:41AM 42.2760 -10.9650 86° East 548 631 36,000  Level FlightAware
02:41AM 42.2890 -10.8150 83° East 554 638 36,000  Level FlightAware
02:42AM 42.3180 -10.6930 72° East 559 643 36,000  Level FlightAware
02:43AM 42.3490 -10.5820 69° East 558 642 36,000  Level FlightAware
02:43AM 42.3770 -10.4820 69° East 558 642 36,000  Level FlightAware
02:44AM 42.4130 -10.3550 69° East 557 641 36,000  Level FlightAware
02:44AM 42.4460 -10.2340 70° East 557 641 36,000  Level FlightAware
02:45AM 42.4740 -10.1330 69° East 558 642 36,000  Level FlightAware
02:45AM 42.5050 -10.0220 69° East 558 642 36,000  Level FlightAware
02:46AM 42.5400 -9.8910 70° East 559 643 36,000  Level FlightAware
02:47AM 42.5670 -9.7930 69° East 559 643 36,000  Level FlightAware
02:47AM 42.6020 -9.6620 70° East 559 643 36,000  Level FlightAware
02:48AM 42.6290 -9.5630 70° East 561 646 36,000  Level FlightAware
02:48AM 42.5773 -9.7537 250° West 559 643 36,000  Level FlightAware ADS-B (LECO / LCG)
02:49AM 42.6900 -9.3350 70° East 562 647 36,000  Level FlightAware
02:50AM 42.7220 -9.2160 70° East 563 648 36,000  Level FlightAware
02:50AM 42.7570 -9.0830 70° East 563 648 36,000  Level FlightAware
02:51AM 42.7809 -8.9897 71° East 562 647 36,000  Level FlightAware ADS-B (LECO / LCG)
02:51AM 42.8114 -8.8734 70° East 562 647 36,000  Level FlightAware ADS-B (LECO / LCG)
02:52AM 42.8376 -8.7734 70° East 561 646 36,000  Level FlightAware ADS-B (LECO / LCG)
02:52AM 42.8715 -8.6439 70° East 560 644 36,000  Level FlightAware ADS-B (LECO / LCG)
02:53AM 42.8976 -8.5408 71° East 559 643 36,000  Level FlightAware ADS-B (LECO / LCG)
02:53AM 42.9195 -8.4154 77° East 549 632 36,000  Level FlightAware ADS-B (LECO / LCG)
02:54AM 42.9186 -8.3131 91° East 539 620 36,000  Level FlightAware ADS-B (LECO / LCG)
02:55AM 42.9110 -8.1773 94° East 540 621 36,000  Level FlightAware ADS-B (LECO / LCG)
02:55AM 42.9033 -8.0424 94° East 537 618 36,000  Level FlightAware ADS-B (LECO / LCG)
02:56AM 42.8973 -7.9416 95° East 535 616 36,000  Level FlightAware ADS-B (LECO / LCG)
02:56AM 42.8906 -7.8410 95° East 535 616 36,000  Level FlightAware ADS-B (LECO / LCG)
02:57AM 42.8837 -7.7370 95° East 534 615 36,000  Level FlightAware ADS-B (LECO / LCG)
02:57AM 42.8747 -7.6068 95° East 533 613 36,000  Level FlightAware ADS-B (LECO / LCG)
02:58AM 42.8674 -7.5034 95° East 530 610 36,000  Level FlightAware ADS-B (LECO / LCG)
02:59AM 42.8582 -7.3712 95° East 527 606 36,000  Level FlightAware ADS-B (LECO / LCG)
02:59AM 42.8512 -7.2726 96° East 524 603 36,000  Level FlightAware ADS-B (LECO / LCG)
03:00AM 42.8420 -7.1452 96° East 520 598 36,000  Level FlightAware ADS-B (LECO / LCG)
03:00AM 42.8347 -7.0443 96° East 519 597 36,000  Level FlightAware ADS-B (LECO / LCG)
03:01AM 42.8275 -6.9473 96° East 518 596 36,000  Level FlightAware ADS-B (LECO / LCG)
03:02AM 42.8179 -6.8181 96° East 516 594 36,000  Level FlightAware ADS-B (LECO / LCG)
03:02AM 42.8107 -6.7216 96° East 514 592 36,000  Level FlightAware ADS-B (LECO / LCG)
03:03AM 42.8034 -6.6255 96° East 512 589 36,000  Level FlightAware ADS-B (LECO / LCG)
03:04AM 42.7875 -6.4220 96° East 508 585 36,000  Level FlightAware ADS-B (LECO / LCG)
03:04AM 42.7790 -6.3200 96° East 508 585 36,000  Level FlightAware
03:05AM 42.7710 -6.2090 96° East 510 587 36,000  Level FlightAware
03:05AM 42.7620 -6.0970 96° East 514 592 36,000  Level FlightAware
03:06AM 42.7530 -5.9870 96° East 516 594 36,000  Level FlightAware
03:06AM 42.7440 -5.8780 96° East 516 594 36,000  Level FlightAware
03:07AM 42.7340 -5.7590 96° East 514 592 36,000  Level FlightAware
03:08AM 42.7250 -5.6500 96° East 514 592 36,000  Level FlightAware
03:08AM 42.7150 -5.5350 97° East 514 592 36,000  Level FlightAware
03:09AM 42.7050 -5.4220 97° East 515 593 36,000  Level FlightAware
03:09AM 42.6950 -5.3100 97° East 514 592 36,000  Level FlightAware
03:10AM 42.6860 -5.2100 97° East 515 593 36,000  Level FlightAware
03:11AM 42.6750 -5.0850 97° East 514 592 36,000  Level FlightAware
03:11AM 42.6650 -4.9730 97° East 512 589 36,000  Level FlightAware
03:12AM 42.6550 -4.8680 97° East 511 588 36,000  Level FlightAware
03:12AM 42.6440 -4.7530 97° East 512 589 36,000  Level FlightAware
03:13AM 42.6330 -4.6390 97° East 513 590 36,000  Level FlightAware
03:13AM 42.6230 -4.5270 97° East 514 592 36,000  Level FlightAware
03:14AM 42.6120 -4.4180 98° East 517 595 36,000  Level FlightAware
03:15AM 42.6010 -4.3020 97° East 518 596 36,000  Level FlightAware
03:15AM 42.5900 -4.1890 97° East 519 597 36,000  Level FlightAware
03:16AM 42.5790 -4.0760 97° East 520 598 36,000  Level FlightAware
03:16AM 42.5680 -3.9670 98° East 519 597 36,000  Level FlightAware
03:17AM 42.5560 -3.8500 98° East 519 597 36,000  Level FlightAware
03:18AM 42.5430 -3.7210 98° East 519 597 36,000  Level FlightAware
03:18AM 42.5330 -3.6190 98° East 520 598 36,000  Level FlightAware
03:19AM 42.5210 -3.5060 98° East 519 597 36,000  Level FlightAware
03:19AM 42.5090 -3.3930 98° East 518 596 36,000  Level FlightAware
03:20AM 42.4970 -3.2840 98° East 516 594 36,000  Level FlightAware
03:20AM 42.4860 -3.1790 98° East 515 593 36,000  Level FlightAware
03:21AM 42.4730 -3.0580 98° East 514 592 36,000  Level FlightAware
03:22AM 42.4600 -2.9440 99° East 513 590 36,000  Level FlightAware
03:22AM 42.4430 -2.8290 101° East 506 582 36,000  Level FlightAware
03:23AM 42.4220 -2.7310 106° East 504 580 36,000  Level FlightAware
03:23AM 42.4010 -2.6280 105° East 505 581 36,000  Level FlightAware
03:24AM 42.3810 -2.5280 105° East 502 578 36,000  Level FlightAware
03:25AM 42.3570 -2.4100 105° East 501 577 36,000  Level FlightAware
03:25AM 42.3340 -2.3020 106° East 502 578 36,000  Level FlightAware
03:26AM 42.3140 -2.2110 107° East 502 578 36,000  Level FlightAware
03:26AM 42.2910 -2.1000 106° East 500 575 36,000  Level FlightAware
03:27AM 42.2680 -1.9920 106° East 499 574 36,000  Level FlightAware
03:27AM 42.2460 -1.8900 106° East 501 577 36,000  Level FlightAware
03:28AM 42.2230 -1.7820 106° East 504 580 36,000  Level FlightAware
03:29AM 42.2000 -1.6790 107° East 507 583 36,000  Level FlightAware
03:29AM 42.1760 -1.5670 106° East 510 587 36,000  Level FlightAware
03:30AM 42.1530 -1.4600 106° East 510 587 36,000  Level FlightAware
03:30AM 42.1320 -1.3620 106° East 511 588 36,000  Level FlightAware
03:31AM 42.1070 -1.2490 107° East 511 588 36,000  Level FlightAware
03:32AM 42.0820 -1.1360 107° East 513 590 36,000  Level FlightAware
03:32AM 42.0610 -1.0450 107° East 512 589 36,000  Level FlightAware
03:33AM 42.0350 -0.9260 106° East 510 587 36,000  Level FlightAware
03:33AM 42.0110 -0.8200 107° East 508 585 36,000  Level FlightAware
03:34AM 41.9890 -0.7210 107° East 506 582 36,000  Level FlightAware
03:34AM 41.9640 -0.6100 107° East 506 582 36,000  Level FlightAware
03:35AM 41.9390 -0.5040 108° East 507 583 36,000  Level FlightAware
03:36AM 41.9160 -0.4020 107° East 509 586 36,000  Level FlightAware
03:36AM 41.8920 -0.2960 107° East 511 588 36,000  Level FlightAware
03:37AM 41.8670 -0.1870 107° East 511 588 36,000  Level FlightAware
03:37AM 41.8430 -0.0840 107° East 511 588 36,000  Level FlightAware
03:38AM 41.8190 0.0190 107° East 510 587 36,000  Level FlightAware
03:39AM 41.7930 0.1270 108° East 509 586 36,000  Level FlightAware
03:39AM 41.7690 0.2320 107° East 509 586 36,000  Level FlightAware
03:40AM 41.7430 0.3400 108° East 509 586 36,000  Level FlightAware
03:40AM 41.7180 0.4430 108° East 511 588 36,000  Level FlightAware
03:41AM 41.6940 0.5450 107° East 508 585 36,000  Level FlightAware
03:41AM 41.6680 0.6560 107° East 509 586 36,000  Level FlightAware
03:42AM 41.6420 0.7600 108° East 508 585 36,000  Level FlightAware
03:43AM 41.6160 0.8540 110° East 506 582 36,000  Level FlightAware
03:43AM 41.5910 0.9490 109° East 505 581 36,000  Level FlightAware
03:44AM 41.5560 1.0810 109° East 503 579 36,000  Level FlightAware
03:45AM 41.5280 1.1930 108° East 506 582 36,000  Level FlightAware
03:45AM 41.5217 1.2200 107° East 507 583 36,000  Level FlightAware ADS-B
03:45AM 41.5005 1.3158 106° East 507 583 36,000  Level FlightAware ADS-B
03:46AM 41.4749 1.4264 107° East 507 583 36,000  Level FlightAware ADS-B
03:47AM 41.4340 1.6060 107° East 509 586 36,000  Level FlightAware
03:47AM 41.4090 1.7110 108° East 510 587 36,000  Level FlightAware
03:48AM 41.3850 1.8060 109° East 511 588 36,000  Level FlightAware
03:49AM 41.3540 1.9250 109° East 513 590 36,000  Level FlightAware
03:49AM 41.3290 2.0210 109° East 513 590 36,000  Level FlightAware
03:50AM 41.3030 2.1320 107° East 513 590 36,000  Level FlightAware
03:50AM 41.2840 2.2390 103° East 513 590 36,000  Level FlightAware
03:51AM 41.2660 2.3500 102° East 512 589 36,000  Level FlightAware
03:52AM 41.2500 2.4510 102° East 511 588 36,000  Level FlightAware
03:52AM 41.2330 2.5590 102° East 509 586 36,000  Level FlightAware
03:53AM 41.2140 2.6710 103° East 510 587 36,000  Level FlightAware
03:53AM 41.1970 2.7720 103° East 509 586 36,000  Level FlightAware
03:54AM 41.1780 2.8790 103° East 510 587 36,000  Level FlightAware
03:54AM 41.1600 2.9860 103° East 511 588 36,000  Level FlightAware
03:55AM 41.1400 3.1020 103° East 510 587 36,000  Level FlightAware
03:56AM 41.1240 3.1930 103° East 510 587 36,000  Level FlightAware
03:56AM 41.1050 3.3030 103° East 511 588 36,000  Level FlightAware
03:57AM 41.0850 3.4160 103° East 512 589 36,000  Level FlightAware
03:57AM 41.0660 3.5250 103° East 512 589 36,000  Level FlightAware
03:58AM 41.0500 3.6140 103° East 512 589 36,000  Level FlightAware
03:59AM 41.0280 3.7360 103° East 512 589 36,000  Level FlightAware
03:59AM 41.0100 3.8370 103° East 512 589 36,000  Level FlightAware
04:00AM 40.9910 3.9430 103° East 511 588 36,000  Level FlightAware
04:00AM 40.9740 4.0370 103° East 508 585 36,000  Level FlightAware
04:01AM 40.9510 4.1610 104° East 507 583 36,000  Level FlightAware
04:01AM 40.9320 4.2610 104° East 506 582 36,000  Level FlightAware
04:02AM 40.9150 4.3570 103° East 505 581 36,000  Level FlightAware
04:03AM 40.8970 4.4530 104° East 505 581 36,000  Level FlightAware
04:03AM 40.8760 4.5680 104° East 508 585 36,000  Level FlightAware
04:04AM 40.8560 4.6860 103° East 510 587 36,000  Level FlightAware
04:04AM 40.8460 4.8000 97° East 510 587 36,000  Level FlightAware
04:05AM 40.8410 4.8970 94° East 512 589 36,000  Level FlightAware
04:06AM 40.8340 5.0150 94° East 513 590 36,000  Level FlightAware
04:06AM 40.8280 5.1150 95° East 513 590 36,000  Level FlightAware
04:07AM 40.8200 5.2300 95° East 513 590 36,000  Level FlightAware
04:07AM 40.8120 5.3460 95° East 513 590 36,000  Level FlightAware
04:08AM 40.8040 5.4580 95° East 514 592 36,000  Level FlightAware
04:08AM 40.7970 5.5610 95° East 514 592 36,000  Level FlightAware
04:09AM 40.7900 5.6610 95° East 514 592 36,000  Level FlightAware
04:10AM 40.7810 5.7850 95° East 513 590 36,000  Level FlightAware
04:10AM 40.7730 5.8910 96° East 511 588 36,000  Level FlightAware
04:11AM 40.7650 5.9900 96° East 510 587 36,000  Level FlightAware
04:11AM 40.7600 6.0670 95° East 510 587 36,000  Level FlightAware
04:12AM 40.7480 6.2400 95° East 510 587 36,000  Level FlightAware
04:13AM 40.7410 6.3330 96° East 510 587 36,000  Level FlightAware
04:13AM 40.7310 6.4690 95° East 509 586 36,000  Level FlightAware
04:14AM 40.7230 6.5770 96° East 508 585 36,000  Level FlightAware
04:15AM 40.7160 6.6810 95° East 507 583 36,000  Level FlightAware
04:15AM 40.7070 6.7920 96° East 507 583 36,000  Level FlightAware
04:16AM 40.7000 6.8970 95° East 506 582 36,000  Level FlightAware
04:16AM 40.6930 7.0100 95° East 507 583 36,000  Level FlightAware
04:17AM 40.6850 7.1180 96° East 506 582 36,000 300 Level FlightAware
04:17AM 40.6790 7.2230 94° East 509 586 36,400 840 Climbing FlightAware
04:18AM 40.6710 7.3300 96° East 508 585 37,000 480 Climbing FlightAware
04:19AM 40.6520 7.4510 102° East 507 583 37,000  Level FlightAware
04:19AM 40.6310 7.5580 104° East 506 582 37,000  Level FlightAware
04:20AM 40.6100 7.6590 105° East 502 578 37,000  Level FlightAware
04:21AM 40.5870 7.7780 104° East 500 575 37,000  Level FlightAware
04:21AM 40.5670 7.8810 104° East 500 575 37,000  Level FlightAware
04:22AM 40.5500 7.9700 104° East 501 577 37,000  Level FlightAware
04:22AM 40.5270 8.0880 104° East 500 575 37,000  Level FlightAware
04:23AM 40.5070 8.1920 104° East 500 575 37,000  Level FlightAware
04:23AM 40.4900 8.2800 104° East 500 575 37,000  Level FlightAware
04:24AM 40.4720 8.3870 102° East 501 577 37,000  Level FlightAware
04:25AM 40.4550 8.5040 101° East 503 579 37,000  Level FlightAware
04:25AM 40.4420 8.6090 99° East 503 579 37,000  Level FlightAware
04:26AM 40.4300 8.7000 100° East 504 580 37,000  Level FlightAware
04:26AM 40.4140 8.8230 100° East 502 578 37,000  Level FlightAware
04:27AM 40.4010 8.9130 101° East 502 578 37,000  Level FlightAware
04:27AM 40.3870 9.0150 100° East 502 578 37,000  Level FlightAware
04:28AM 40.3700 9.1350 100° East 502 578 37,000  Level FlightAware
04:29AM 40.3550 9.2430 100° East 502 578 37,000  Level FlightAware
04:29AM 40.3380 9.3610 101° East 503 579 37,000  Level FlightAware
04:30AM 40.3230 9.4660 101° East 503 579 37,000  Level FlightAware
04:31AM 40.3070 9.5850 100° East 502 578 37,000  Level FlightAware
04:31AM 40.2910 9.6930 101° East 502 578 37,000  Level FlightAware
04:32AM 40.2740 9.8100 101° East 502 578 37,000  Level FlightAware
04:32AM 40.2610 9.8990 101° East 501 577 37,000  Level FlightAware
04:33AM 40.2460 10.0040 101° East 501 577 37,000  Level FlightAware
04:34AM 40.2300 10.1080 101° East 503 579 37,000  Level FlightAware
04:34AM 40.2150 10.2130 101° East 503 579 37,000  Level FlightAware
04:35AM 40.1990 10.3200 101° East 504 580 37,000  Level FlightAware
04:35AM 40.1830 10.4220 102° East 503 579 37,000  Level FlightAware
04:36AM 40.1670 10.5260 101° East 501 577 37,000  Level FlightAware
04:36AM 40.1440 10.6430 104° East 501 577 37,000  Level FlightAware
04:37AM 40.1220 10.7450 106° East 499 574 37,000  Level FlightAware
04:38AM 40.1030 10.8330 106° East 499 574 37,000  Level FlightAware
04:38AM 40.0780 10.9520 105° East 499 574 37,000  Level FlightAware
04:39AM 40.0560 11.0510 106° East 499 574 37,000  Level FlightAware
04:40AM 40.0300 11.1700 106° East 499 574 37,000  Level FlightAware
04:40AM 40.0090 11.2730 105° East 500 575 37,000  Level FlightAware
04:41AM 39.9930 11.3760 101° East 502 578 37,000  Level FlightAware
04:41AM 39.9770 11.4770 102° East 501 577 37,000  Level FlightAware
04:42AM 39.9620 11.5780 101° East 502 578 37,000  Level FlightAware
04:42AM 39.9450 11.6970 101° East 503 579 37,000  Level FlightAware
04:43AM 39.9300 11.7950 101° East 504 580 37,000  Level FlightAware
04:44AM 39.9130 11.9050 101° East 505 581 37,000  Level FlightAware
04:44AM 39.8970 12.0040 102° East 506 582 37,000  Level FlightAware
04:45AM 39.8810 12.1090 101° East 507 583 37,000  Level FlightAware
04:45AM 39.8640 12.2230 101° East 509 586 37,000  Level FlightAware
04:46AM 39.8470 12.3270 102° East 509 586 37,000  Level FlightAware
04:47AM 39.8310 12.4300 101° East 510 587 37,000  Level FlightAware
04:47AM 39.8150 12.5320 102° East 510 587 37,000  Level FlightAware
04:48AM 39.7990 12.6360 101° East 510 587 37,000  Level FlightAware
04:48AM 39.7820 12.7380 102° East 510 587 37,000  Level FlightAware
04:49AM 39.7650 12.8460 102° East 511 588 37,000  Level FlightAware
04:50AM 39.7430 12.9820 102° East 510 587 37,000  Level FlightAware
04:50AM 39.7280 13.0840 101° East 510 587 37,000  Level FlightAware
04:51AM 39.7050 13.2100 103° East 511 588 37,000  Level FlightAware
04:51AM 39.6930 13.2880 101° East 510 587 37,000  Level FlightAware
04:52AM 39.6730 13.4070 102° East 510 587 37,000  Level FlightAware
04:53AM 39.6560 13.5090 102° East 509 586 37,000  Level FlightAware
04:53AM 39.6390 13.6070 103° East 509 586 37,000  Level FlightAware
04:54AM 39.6240 13.7000 102° East 508 585 37,000  Level FlightAware
04:54AM 39.6030 13.8240 102° East 506 582 37,000  Level FlightAware
04:55AM 39.5830 13.9430 102° East 505 581 37,000  Level FlightAware
04:56AM 39.5590 14.0790 103° East 506 582 37,000  Level FlightAware
04:56AM 39.5400 14.1880 103° East 506 582 37,000  Level FlightAware
04:57AM 39.5230 14.2850 103° East 505 581 37,000  Level FlightAware
04:58AM 39.5040 14.3940 103° East 506 582 37,000  Level FlightAware
04:58AM 39.4860 14.4980 103° East 506 582 37,000  Level FlightAware
04:59AM 39.4700 14.5830 104° East 506 582 37,000  Level FlightAware
04:59AM 39.4500 14.6950 103° East 506 582 37,000  Level FlightAware
05:00AM 39.4300 14.8070 103° East 506 582 37,000  Level FlightAware
05:00AM 39.4120 14.9110 103° East 507 583 37,000  Level FlightAware
05:01AM 39.3940 15.0080 103° East 507 583 37,000  Level FlightAware
05:02AM 39.3750 15.1110 103° East 507 583 37,000  Level FlightAware
05:02AM 39.3580 15.2050 103° East 508 585 37,000  Level FlightAware
05:03AM 39.3380 15.3120 104° East 508 585 37,000  Level FlightAware
05:03AM 39.3180 15.4240 103° East 509 586 37,000  Level FlightAware
05:04AM 39.2980 15.5300 104° East 510 587 37,000  Level FlightAware
05:04AM 39.2800 15.6250 104° East 510 587 37,000  Level FlightAware
05:05AM 39.2600 15.7310 104° East 511 588 37,000  Level FlightAware
05:06AM 39.2410 15.8320 104° East 511 588 37,000  Level FlightAware
05:06AM 39.2190 15.9470 104° East 511 588 37,000  Level FlightAware
05:07AM 39.2010 16.0420 104° East 512 589 37,000  Level FlightAware
05:07AM 39.1790 16.1480 105° East 513 590 37,000  Level FlightAware
05:08AM 39.1550 16.2530 106° East 513 590 37,000  Level FlightAware
05:09AM 39.1330 16.3530 106° East 513 590 37,000  Level FlightAware
05:09AM 39.1110 16.4530 106° East 513 590 37,000  Level FlightAware
05:10AM 39.0880 16.5590 106° East 513 590 37,000  Level FlightAware
05:10AM 39.0670 16.6530 106° East 513 590 37,000  Level FlightAware
05:11AM 39.0430 16.7580 106° East 513 590 37,000  Level FlightAware
05:12AM 39.0220 16.8520 106° East 513 590 37,000  Level FlightAware
05:12AM 38.9980 16.9640 105° East 514 592 37,000  Level FlightAware
05:13AM 38.9760 17.0600 106° East 514 592 37,000  Level FlightAware
05:13AM 38.9500 17.1720 107° East 515 593 37,000  Level FlightAware
05:14AM 38.9270 17.2770 106° East 515 593 37,000  Level FlightAware
05:14AM 38.9020 17.3860 106° East 515 593 37,000  Level FlightAware
05:15AM 38.8800 17.4800 107° East 516 594 37,000  Level FlightAware
05:16AM 38.8560 17.5820 107° East 516 594 37,000  Level FlightAware
05:16AM 38.8330 17.6820 106° East 516 594 37,000  Level FlightAware
05:17AM 38.8070 17.7960 106° East 517 595 37,000  Level FlightAware
05:17AM 38.7850 17.8900 107° East 517 595 37,000  Level FlightAware
05:18AM 38.7600 17.9960 107° East 517 595 37,000  Level FlightAware
05:19AM 38.7350 18.1010 107° East 517 595 37,000  Level FlightAware
05:19AM 38.7100 18.2070 107° East 517 595 37,000  Level FlightAware
05:20AM 38.6880 18.3000 107° East 517 595 37,000  Level FlightAware
05:20AM 38.6630 18.4060 107° East 517 595 37,000  Level FlightAware
05:21AM 38.6390 18.5050 107° East 517 595 37,000  Level FlightAware
05:21AM 38.6150 18.6040 107° East 517 595 37,000  Level FlightAware
05:22AM 38.5880 18.7150 107° East 516 594 37,000  Level FlightAware
05:23AM 38.5620 18.8200 108° East 517 595 37,000  Level FlightAware
05:23AM 38.5420 18.9040 107° East 517 595 37,000  Level FlightAware
05:24AM 38.5080 19.0350 108° East 513 590 37,000  Level FlightAware
05:25AM 38.4750 19.1460 111° Southeast 515 593 37,000  Level FlightAware
05:25AM 38.4450 19.2520 110° East 513 590 37,000  Level FlightAware
05:26AM 38.4160 19.3480 111° Southeast 515 593 37,000  Level FlightAware
05:26AM 38.3910 19.4340 110° East 515 593 37,000  Level FlightAware
05:27AM 38.3560 19.5480 111° Southeast 515 593 37,000  Level FlightAware
05:27AM 38.3260 19.6470 111° Southeast 515 593 37,000  Level FlightAware
05:28AM 38.2920 19.7610 111° Southeast 515 593 37,000  Level FlightAware
05:29AM 38.2660 19.8490 111° Southeast 515 593 37,000  Level FlightAware
05:29AM 38.2360 19.9460 111° Southeast 516 594 37,000  Level FlightAware
05:30AM 38.2050 20.0480 111° Southeast 517 595 37,000  Level FlightAware
05:30AM 38.1750 20.1450 111° Southeast 517 595 37,000  Level FlightAware
05:31AM 38.1440 20.2450 111° Southeast 519 597 37,000  Level FlightAware
05:32AM 38.1120 20.3470 112° Southeast 522 601 37,000  Level FlightAware
05:32AM 38.0810 20.4470 111° Southeast 522 601 37,000  Level FlightAware
05:33AM 38.0490 20.5500 112° Southeast 522 601 37,000  Level FlightAware
05:33AM 38.0190 20.6470 111° Southeast 522 601 37,000  Level FlightAware
05:34AM 37.9870 20.7490 112° Southeast 522 601 37,000  Level FlightAware
05:34AM 37.9560 20.8460 112° Southeast 522 601 37,000  Level FlightAware
05:35AM 37.9240 20.9480 112° Southeast 523 602 37,000  Level FlightAware
05:36AM 37.8940 21.0420 112° Southeast 523 602 37,000  Level FlightAware
05:36AM 37.8610 21.1470 112° Southeast 523 602 37,000  Level FlightAware
05:37AM 37.8220 21.2690 112° Southeast 522 601 37,000  Level FlightAware
05:38AM 37.7900 21.3710 112° Southeast 523 602 37,000  Level FlightAware
05:38AM 37.7590 21.4640 113° Southeast 523 602 37,000  Level FlightAware
05:39AM 37.7270 21.5660 112° Southeast 523 602 37,000  Level FlightAware
05:39AM 37.6960 21.6620 112° Southeast 523 602 37,000  Level FlightAware
05:40AM 37.6640 21.7610 112° Southeast 524 603 37,000  Level FlightAware
05:40AM 37.6320 21.8570 113° Southeast 524 603 37,000  Level FlightAware
05:41AM 37.5970 21.9640 112° Southeast 525 604 37,000  Level FlightAware
05:42AM 37.5660 22.0580 113° Southeast 524 603 37,000  Level FlightAware
05:42AM 37.5330 22.1590 112° Southeast 525 604 37,000  Level FlightAware
05:43AM 37.5020 22.2530 113° Southeast 525 604 37,000  Level FlightAware
05:43AM 37.4660 22.3600 113° Southeast 527 606 37,000  Level FlightAware
05:44AM 37.4370 22.4480 113° Southeast 528 608 37,000  Level FlightAware
05:44AM 37.4040 22.5470 113° Southeast 528 608 37,000  Level FlightAware
05:45AM 37.3680 22.6540 113° Southeast 528 608 37,000  Level FlightAware
05:46AM 37.3330 22.7580 113° Southeast 528 608 37,000  Level FlightAware
05:46AM 37.3010 22.8520 113° Southeast 528 608 37,000  Level FlightAware
05:47AM 37.2630 22.9640 113° Southeast 529 609 37,000  Level FlightAware
05:48AM 37.2290 23.0660 113° Southeast 529 609 37,000  Level FlightAware
05:48AM 37.1930 23.1730 113° Southeast 529 609 37,000  Level FlightAware
05:49AM 37.1610 23.2640 114° Southeast 529 609 37,000  Level FlightAware
05:49AM 37.1290 23.3570 113° Southeast 529 609 37,000  Level FlightAware
05:50AM 37.0940 23.4610 113° Southeast 530 610 37,000  Level FlightAware
05:50AM 37.0580 23.5620 114° Southeast 530 610 37,000  Level FlightAware
05:51AM 37.0260 23.6580 113° Southeast 531 611 37,000  Level FlightAware
05:52AM 36.9900 23.7600 114° Southeast 532 612 37,000  Level FlightAware
05:52AM 36.9540 23.8640 113° Southeast 532 612 37,000  Level FlightAware
05:53AM 36.9220 23.9540 114° Southeast 532 612 37,000  Level FlightAware
05:53AM 36.8870 24.0520 114° Southeast 532 612 37,000  Level FlightAware
05:54AM 36.8510 24.1570 113° Southeast 533 613 37,000  Level FlightAware
05:55AM 36.8140 24.2610 114° Southeast 533 613 37,000  Level FlightAware
05:55AM 36.7840 24.3450 114° Southeast 534 615 37,000  Level FlightAware
05:56AM 36.7480 24.4470 114° Southeast 535 616 37,000  Level FlightAware
05:56AM 36.7120 24.5480 114° Southeast 535 616 37,000  Level FlightAware
05:57AM 36.6730 24.6550 114° Southeast 536 617 37,000  Level FlightAware
05:57AM 36.6410 24.7420 115° Southeast 536 617 37,000  Level FlightAware
05:58AM 36.6040 24.8470 114° Southeast 538 619 37,000  Level FlightAware
05:59AM 36.5680 24.9480 114° Southeast 538 619 37,000  Level FlightAware
05:59AM 36.5330 25.0440 114° Southeast 538 619 37,000  Level FlightAware
06:00AM 36.4980 25.1400 114° Southeast 538 619 37,000  Level FlightAware
06:00AM 36.4610 25.2410 114° Southeast 538 619 37,000  Level FlightAware
06:01AM 36.4240 25.3430 114° Southeast 540 621 37,000  Level FlightAware
06:02AM 36.3910 25.4330 114° Southeast 540 621 37,000  Level FlightAware
06:02AM 36.3510 25.5400 115° Southeast 540 621 37,000  Level FlightAware
06:03AM 36.3180 25.6300 114° Southeast 541 623 37,000  Level FlightAware
06:03AM 36.2800 25.7320 115° Southeast 541 623 37,000  Level FlightAware
06:04AM 36.2420 25.8330 115° Southeast 541 623 37,000  Level FlightAware
06:05AM 36.2050 25.9340 114° Southeast 542 624 37,000  Level FlightAware
06:05AM 36.1710 26.0240 115° Southeast 543 625 37,000  Level FlightAware
06:06AM 36.1330 26.1260 115° Southeast 543 625 37,000  Level FlightAware
06:06AM 36.0940 26.2270 116° Southeast 544 626 37,000  Level FlightAware
06:07AM 36.0600 26.3170 115° Southeast 544 626 37,000  Level FlightAware
06:07AM 36.0240 26.4130 115° Southeast 545 627 37,000  Level FlightAware
06:08AM 35.9830 26.5200 115° Southeast 545 627 37,000  Level FlightAware
06:09AM 35.9430 26.6270 115° Southeast 547 629 37,000  Level FlightAware
06:09AM 35.9080 26.7170 116° Southeast 548 631 37,000  Level FlightAware
06:10AM 35.8610 26.8390 115° Southeast 548 631 37,000  Level FlightAware
06:10AM 35.8290 26.9230 115° Southeast 548 631 37,000  Level FlightAware
06:11AM 35.7990 26.9990 116° Southeast 548 631 37,000  Level FlightAware
06:12AM 35.7450 27.1380 116° Southeast 550 633 37,000  Level FlightAware
06:12AM 35.7110 27.2250 116° Southeast 550 633 37,000  Level FlightAware
06:13AM 35.6680 27.3380 115° Southeast 551 634 37,000  Level FlightAware
06:13AM 35.6320 27.4290 116° Southeast 552 635 37,000  Level FlightAware
06:14AM 35.5920 27.5300 116° Southeast 552 635 37,000  Level FlightAware
06:15AM 35.5520 27.6320 116° Southeast 552 635 37,000  Level FlightAware
06:15AM 35.5160 27.7220 116° Southeast 554 638 37,000  Level FlightAware
06:16AM 35.4780 27.8180 116° Southeast 553 636 37,000  Level FlightAware
06:16AM 35.4360 27.9260 115° Southeast 553 636 37,000  Level FlightAware
06:17AM 35.3960 28.0270 116° Southeast 552 635 37,000  Level FlightAware
06:17AM 35.3590 28.1170 117° Southeast 554 638 37,000  Level FlightAware
06:18AM 35.3210 28.2120 116° Southeast 553 636 37,000  Level FlightAware
06:19AM 35.2790 28.3170 116° Southeast 553 636 37,000  Level FlightAware
06:19AM 35.2340 28.4290 116° Southeast 554 638 37,000  Level FlightAware
06:20AM 35.1890 28.5380 117° Southeast 553 636 37,000  Level FlightAware
06:21AM 35.1480 28.6390 116° Southeast 555 639 37,000  Level FlightAware
06:21AM 35.1030 28.7480 117° Southeast 555 639 37,000  Level FlightAware
06:22AM 35.0560 28.8630 117° Southeast 555 639 37,000  Level FlightAware
06:22AM 35.0150 28.9640 116° Southeast 551 634 37,000  Level FlightAware
06:23AM 34.9580 29.1040 116° Southeast 552 635 37,000  Level FlightAware
06:24AM 34.9120 29.2160 117° Southeast 556 640 37,000  Level FlightAware
06:25AM 34.8740 29.3050 117° Southeast 555 639 37,000  Level FlightAware
06:25AM 34.8280 29.4170 117° Southeast 555 639 37,000  Level FlightAware
06:26AM 34.7900 29.5090 117° Southeast 555 639 37,000  Level FlightAware
06:26AM 34.7490 29.6060 117° Southeast 551 634 37,000  Level FlightAware
06:27AM 34.7070 29.7060 117° Southeast 552 635 37,000  Level FlightAware
06:27AM 34.6660 29.8030 117° Southeast 552 635 37,000  Level FlightAware
06:28AM 34.6270 29.8980 116° Southeast 552 635 37,000  Level FlightAware
06:29AM 34.5910 29.9880 116° Southeast 552 635 37,000  Level FlightAware
06:30AM 34.4890 30.2000 120° Southeast 554 638 37,000  Level FlightAware
06:31AM 34.4410 30.2990 120° Southeast 553 636 37,000  Level FlightAware
06:31AM 34.4020 30.3820 120° Southeast 553 636 37,000  Level FlightAware
06:32AM 34.3520 30.4860 120° Southeast 550 633 37,000  Level FlightAware
06:32AM 34.3070 30.5770 121° Southeast 550 633 37,000  Level FlightAware
06:33AM 34.2670 30.6620 120° Southeast 550 633 37,000  Level FlightAware
06:33AM 34.2220 30.7520 121° Southeast 549 632 37,000  Level FlightAware
06:34AM 34.1760 30.8500 120° Southeast 548 631 37,000  Level FlightAware
06:35AM 34.1240 30.9550 121° Southeast 548 631 37,000  Level FlightAware
06:35AM 34.0850 31.0340 121° Southeast 547 629 37,000  Level FlightAware
06:36AM 34.0400 31.1260 121° Southeast 546 628 37,000  Level FlightAware
06:36AM 33.9870 31.2340 121° Southeast 547 629 37,000  Level FlightAware
06:37AM 33.9410 31.3280 121° Southeast 541 623 37,000  Level FlightAware
06:38AM 33.8970 31.4170 121° Southeast 534 615 37,000  Level FlightAware
06:38AM 33.8520 31.5060 121° Southeast 533 613 37,000  Level FlightAware
06:39AM 33.8080 31.5950 121° Southeast 532 612 37,000  Level FlightAware
06:39AM 33.7630 31.6870 120° Southeast 530 610 37,000  Level FlightAware
06:40AM 33.7200 31.7720 121° Southeast 530 610 37,000  Level FlightAware
06:40AM 33.6760 31.8600 121° Southeast 529 609 37,000  Level FlightAware
06:41AM 33.6300 31.9510 121° Southeast 529 609 37,000  Level FlightAware
06:42AM 33.5850 32.0420 121° Southeast 529 609 37,000  Level FlightAware
06:42AM 33.5420 32.1270 121° Southeast 529 609 37,000  Level FlightAware
06:43AM 33.4960 32.2170 121° Southeast 529 609 37,000 -120 Level FlightAware
06:43AM 33.4530 32.3020 121° Southeast 529 609 36,900 -780 Descending FlightAware
06:44AM 33.4080 32.3900 121° Southeast 531 611 36,100 -1,440 Descending FlightAware
06:45AM 33.3610 32.4840 121° Southeast 533 613 35,200 -1,860 Descending FlightAware
06:45AM 33.3100 32.5820 122° Southeast 531 611 33,800 -2,280 Descending FlightAware
06:46AM 33.2640 32.6710 122° Southeast 526 605 32,400 -2,280 Descending FlightAware
06:46AM 33.2220 32.7530 121° Southeast 520 598 31,200 -2,160 Descending FlightAware
06:47AM 33.1690 32.8570 121° Southeast 511 588 29,700 -1,740 Descending FlightAware
06:48AM 33.1190 32.9540 122° Southeast 497 572 28,800 -1,500 Descending FlightAware
06:48AM 33.0760 33.0370 122° Southeast 488 562 27,800 -1,560 Descending FlightAware
06:49AM 33.0400 33.1070 122° Southeast 471 542 27,000 -1,620 Descending FlightAware
06:50AM 32.9920 33.1970 122° Southeast 450 518 25,900 -1,860 Descending FlightAware
06:50AM 32.9380 33.3010 122° Southeast 438 504 24,300 -1,980 Descending FlightAware
06:51AM 32.9030 33.3700 121° Southeast 430 495 23,200 -1,980 Descending FlightAware
06:52AM 32.8700 33.4310 123° Southeast 422 486 22,200 -1,860 Descending FlightAware
06:52AM 32.8300 33.5100 121° Southeast 413 475 21,000 -2,040 Descending FlightAware
06:53AM 32.7960 33.5740 122° Southeast 394 453 19,700 -2,040 Descending FlightAware
06:53AM 32.7610 33.6400 122° Southeast 372 428 18,600 -2,160 Descending FlightAware
06:54AM 32.7320 33.6950 122° Southeast 365 420 17,300 -2,280 Descending FlightAware
06:55AM 32.7000 33.7550 122° Southeast 355 409 16,000 -2,280 Descending FlightAware
06:55AM 32.6700 33.8120 122° Southeast 347 399 14,700 -1,620 Descending FlightAware
06:56AM 32.6400 33.8700 122° Southeast 329 379 14,100 -1,020 Descending FlightAware
06:56AM 32.6140 33.9160 124° Southeast 337 388 13,600 -960 Descending FlightAware
06:57AM 32.5820 33.9770 122° Southeast 348 400 13,000 -1,020 Descending FlightAware
06:57AM 32.5520 34.0350 122° Southeast 342 394 12,400 -1,080 Descending FlightAware
06:58AM 32.5260 34.0840 122° Southeast 336 387 11,800 -1,140 Descending FlightAware
06:59AM 32.4940 34.1440 122° Southeast 325 374 11,100 -1,020 Descending FlightAware
06:59AM 32.4690 34.1800 129° Southeast 316 364 10,700 -1,080 Descending FlightAware
07:00AM 32.4310 34.2250 135° Southeast 327 376 10,000 -1,020 Descending FlightAware
07:00AM 32.4090 34.2500 136° Southeast 322 371 9,800 -900 Descending FlightAware
07:00AM 32.3880 34.2750 135° Southeast 316 364 9,400 -1,140 Descending FlightAware
07:01AM 32.3630 34.3040 136° Southeast 311 358 9,000 -1,080 Descending FlightAware
07:01AM 32.3430 34.3280 135° Southeast 305 351 8,600 -1,260 Descending FlightAware
07:01AM 32.3240 34.3500 136° Southeast 302 348 8,200 -1,200 Descending FlightAware
07:02AM 32.3010 34.3780 134° Southeast 298 343 7,700 -1,140 Descending FlightAware
07:02AM 32.2800 34.4020 136° Southeast 293 337 7,300 -1,200 Descending FlightAware
07:03AM 32.2600 34.4250 136° Southeast 289 333 6,800 -1,320 Descending FlightAware
07:03AM 32.2410 34.4470 136° Southeast 285 328 6,400 -1,320 Descending FlightAware
07:03AM 32.2200 34.4790 128° Southeast 284 327 5,900 -660 Descending FlightAware
07:04AM 32.2020 34.5130 122° Southeast 284 327 5,800 -1,080 Descending FlightAware
07:04AM 32.1820 34.5540 120° Southeast 279 321 4,900 -1,200 Descending FlightAware
07:05AM 32.1680 34.5800 122° Southeast 280 322 4,900  Level FlightAware
07:05AM 32.1550 34.6060 121° Southeast 276 318 4,900  Level FlightAware
07:05AM 32.1420 34.6300 123° Southeast 277 319 4,900  Level FlightAware
07:06AM 32.1230 34.6630 124° Southeast 276 318 4,900  Level FlightAware
07:06AM 32.1090 34.6880 123° Southeast 276 318 4,900  Level FlightAware
07:06AM 32.0950 34.7130 123° Southeast 270 311 4,900  Level FlightAware
07:07AM 32.0820 34.7380 122° Southeast 251 289 4,900  Level FlightAware
07:07AM 32.0680 34.7640 122° Southeast 230 265 4,900 -180 Level FlightAware
07:07AM 32.0530 34.7840 132° Southeast 229 264 4,800 -300 Descending FlightAware
07:08AM 32.0380 34.8010 136° Southeast 227 261 4,700 -480 Descending FlightAware
07:08AM 32.0230 34.8170 138° Southeast 217 250 4,500 -480 Descending FlightAware
07:08AM 32.0110 34.8310 135° Southeast 215 247 4,400 -600 Descending FlightAware
07:09AM 31.9960 34.8490 134° Southeast 219 252 4,100 -1,260 Descending FlightAware
07:09AM 31.9800 34.8680 135° Southeast 227 261 3,500 -1,680 Descending FlightAware
07:09AM 31.9730 34.8920 109° East 232 267 2,900 -1,500 Descending FlightAware
07:10AM 31.9770 34.9150 78° East 208 239 2,500 -1,080 Descending FlightAware
07:10AM 31.9830 34.9380 73° East 201 231 2,200 -1,020 Descending FlightAware
07:10AM 31.9860 34.9480 71° East 194 223 2,000 -960 Descending FlightAware
07:11AM 31.9940 34.9580 47° Northeast 184 212 1,800 -300 Descending FlightAware
07:11AM 32.0090 34.9730 40° Northeast 184 212 1,800 -1,020 Level FlightAware
07:11AM 32.0170 34.9600 306° West 163 188 1,300 -3,240 Descending FlightAware
07:11AM 32.0220 34.9570 333° Northwest 160 184 1,100 -420 Descending FlightAware
07:12AM 32.0390 34.9360 314° West 160 184 1,000 -780 Descending FlightAware
07:12AM 32.0220 34.9230 213° Southwest 152 175 600 -780 Descending FlightAware
07:13AM 32.0180 34.8910 262° West 150 173 400 -300 Descending FlightAware